Time;durP1;ratioP1;P1;durP2;ratioP2;P2;SDS_P1;SDS_P2;PMS_P1;PMS_P2;Temp;Humidity;BMP_temperature;BMP_pressure;BME280_temperature;BME280_humidity;BME280_pressure;Samples;Min_cycle;Max_cycle;Signal;HPM_P1;HPM_P2
2021/11/09 00:03:00;;;;;;;27.33;11.40;;;;;;;8.12;66.15;100849.19;10389807;28;20680;-62
2021/11/09 00:08:07;;;;;;;24.02;9.73;;;;;;;8.14;66.27;100849.97;10391283;28;20502;-62
2021/11/09 00:13:09;;;;;;;25.85;9.88;;;;;;;8.14;66.05;100844.75;10389673;28;20057;-62
2021/11/09 00:18:11;;;;;;;28.65;10.63;;;;;;;8.15;66.11;100843.84;10389293;28;20085;-62
2021/11/09 00:23:15;;;;;;;21.67;9.80;;;;;;;8.16;66.08;100846.38;10389586;28;20049;-62
2021/11/09 00:28:16;;;;;;;25.33;9.68;;;;;;;8.13;66.15;100850.88;10388864;28;20048;-62
2021/11/09 00:33:18;;;;;;;21.13;9.77;;;;;;;8.02;66.37;100846.84;10388202;28;20056;-62
2021/11/09 00:38:20;;;;;;;24.60;9.85;;;;;;;7.93;66.49;100843.72;10388743;28;20128;-62
2021/11/09 00:43:23;;;;;;;24.50;9.48;;;;;;;7.96;66.56;100844.44;10388617;28;20127;-62
2021/11/09 00:48:24;;;;;;;23.50;9.77;;;;;;;8.02;66.40;100839.03;10388382;28;20107;-62
2021/11/09 00:53:26;;;;;;;27.17;9.75;;;;;;;8.04;66.36;100836.38;10388161;28;20053;-62
2021/11/09 00:58:28;;;;;;;31.98;11.70;;;;;;;8.01;66.37;100837.34;10387895;28;20088;-62
2021/11/09 01:03:30;;;;;;;22.08;9.15;;;;;;;7.84;66.65;100842.28;10386489;28;20049;-62
2021/11/09 01:08:32;;;;;;;25.00;10.25;;;;;;;7.84;66.77;100844.88;10388262;28;20089;-62
2021/11/09 01:13:34;;;;;;;25.85;9.82;;;;;;;7.94;66.85;100856.69;10387518;28;20542;-62
2021/11/09 01:18:46;;;;;;;28.15;10.75;;;;;;;7.95;66.82;100854.94;10387565;28;20136;-62
2021/11/09 01:23:54;;;;;;;20.85;9.27;;;;;;;8.01;66.74;100852.13;10387078;28;20057;-62
2021/11/09 01:29:02;;;;;;;26.77;10.55;;;;;;;8.04;66.46;100852.00;10386735;28;20049;-61
2021/11/09 01:34:05;;;;;;;22.00;9.43;;;;;;;8.07;66.38;100845.84;10386466;28;20061;-62
2021/11/09 01:39:08;;;;;;;28.17;10.68;;;;;;;8.08;66.30;100852.75;10385865;28;20057;-62
2021/11/09 01:44:09;;;;;;;24.92;10.82;;;;;;;8.11;66.38;100852.66;10385776;28;20064;-61
2021/11/09 01:49:12;;;;;;;21.02;9.98;;;;;;;8.11;66.25;100850.06;10385817;28;20084;-62
2021/11/09 01:54:14;;;;;;;25.98;9.50;;;;;;;7.95;66.26;100853.19;10385361;28;20080;-62
2021/11/09 01:59:16;;;;;;;27.58;10.27;;;;;;;7.85;66.48;100853.56;10386255;28;20060;-62
2021/11/09 02:04:18;;;;;;;24.48;10.68;;;;;;;7.75;66.97;100846.94;10385272;28;20223;-62
2021/11/09 02:09:20;;;;;;;26.75;10.13;;;;;;;7.86;66.84;100847.41;10385262;28;20142;-62
2021/11/09 02:14:22;;;;;;;23.83;9.52;;;;;;;7.78;67.08;100844.22;10384983;28;20066;-62
2021/11/09 02:19:24;;;;;;;23.85;10.73;;;;;;;7.77;67.06;100845.16;10384677;28;20474;-62
2021/11/09 02:24:26;;;;;;;25.35;10.73;;;;;;;7.76;66.92;100846.91;10385013;28;20080;-62
2021/11/09 02:29:28;;;;;;;25.67;11.18;;;;;;;7.68;67.22;100851.50;10383573;28;20410;-62
2021/11/09 02:34:29;;;;;;;28.00;11.00;;;;;;;7.75;66.98;100849.56;10383736;28;20085;-63
2021/11/09 02:39:31;;;;;;;22.73;9.85;;;;;;;7.65;67.22;100851.59;10382842;28;20795;-62
2021/11/09 02:44:34;;;;;;;22.02;9.90;;;;;;;7.72;67.25;100845.28;10382561;28;20053;-62
2021/11/09 02:50:24;;;;;;;22.38;10.55;;;;;;;7.77;67.05;100850.34;10381105;28;20368;-62
2021/11/09 02:55:05;;;;;;;26.83;11.40;;;;;;;7.72;67.13;100854.84;10376785;28;20568;-62
2021/11/09 03:05:29;;;;;;;27.48;11.07;;;;;;;7.13;67.76;100861.97;10389978;28;20051;-62
2021/11/09 03:10:36;;;;;;;22.48;9.68;;;;;;;6.95;68.09;100859.94;10392047;28;20054;-62
2021/11/09 03:15:38;;;;;;;29.42;11.90;;;;;;;6.85;68.26;100879.31;10391445;28;20064;-62
2021/11/09 03:20:48;;;;;;;32.33;11.30;;;;;;;6.73;68.11;100880.53;10391043;28;20045;-62
2021/11/09 03:47:15;;;;;;;29.15;10.13;;;;;;;6.85;68.09;100885.38;10389995;28;20585;-62
2021/11/09 03:52:22;;;;;;;22.00;9.20;;;;;;;6.83;67.97;100897.56;10390279;28;20315;-62
2021/11/09 03:57:29;;;;;;;27.05;9.00;;;;;;;6.81;68.03;100903.72;10390437;28;20050;-62
2021/11/09 05:11:06;;;;;;;29.65;10.57;;;;;;;5.89;68.06;100933.00;10388003;28;20071;-62
2021/11/09 05:16:08;;;;;;;34.28;10.23;;;;;;;5.95;68.30;100935.44;10388718;28;20168;-62
2021/11/09 05:21:10;;;;;;;38.60;10.27;;;;;;;6.02;68.10;100937.00;10388129;28;20057;-63
2021/11/09 05:26:12;;;;;;;63.80;20.25;;;;;;;6.00;68.49;100937.94;10388541;28;20045;-62
2021/11/09 05:31:15;;;;;;;66.70;14.32;;;;;;;6.11;68.49;100941.97;10387536;28;20050;-62
2021/11/09 05:36:16;;;;;;;186.55;22.33;;;;;;;6.20;68.63;100944.34;10386663;28;20410;-63
2021/11/09 05:41:20;;;;;;;67.47;15.95;;;;;;;6.22;68.15;100944.28;10386559;28;20053;-62
2021/11/09 05:46:22;;;;;;;88.13;13.75;;;;;;;6.27;68.17;100947.63;10387395;28;20414;-63
2021/11/09 05:51:24;;;;;;;181.48;16.83;;;;;;;6.34;68.03;100957.00;10386957;28;20436;-63
2021/11/09 05:56:27;;;;;;;189.75;15.85;;;;;;;6.42;67.95;100974.97;10387465;28;20049;-62
2021/11/09 06:01:29;;;;;;;163.27;13.68;;;;;;;6.27;68.14;100971.03;10384522;28;20055;-62
2021/11/09 06:06:31;;;;;;;274.77;19.70;;;;;;;6.13;68.77;100979.13;10386573;28;20057;-62
2021/11/09 06:11:33;;;;;;;137.25;13.73;;;;;;;6.12;68.76;100976.59;10386317;28;20937;-62
2021/11/09 06:16:35;;;;;;;96.47;14.02;;;;;;;6.05;68.92;100986.25;10385193;28;20053;-64
2021/11/09 06:21:37;;;;;;;379.95;18.20;;;;;;;6.05;68.89;100994.06;10386234;28;20132;-64
2021/11/09 06:26:39;;;;;;;297.27;21.10;;;;;;;6.02;69.13;100999.31;10385938;28;20057;-64
2021/11/09 06:31:41;;;;;;;283.00;15.90;;;;;;;5.91;68.79;101001.31;10385557;28;20498;-64
2021/11/09 06:36:43;;;;;;;268.02;21.20;;;;;;;5.92;69.08;101008.22;10384017;28;20148;-64
2021/11/09 06:41:45;;;;;;;236.15;15.52;;;;;;;5.80;69.03;101013.69;10384562;28;20061;-64
2021/11/09 06:46:52;;;;;;;126.57;13.15;;;;;;;5.75;69.65;101010.38;10385739;28;20553;-64
2021/11/09 06:51:53;;;;;;;194.18;13.75;;;;;;;5.85;69.38;101013.59;10373527;28;20053;-64
2021/11/09 06:56:55;;;;;;;278.35;20.10;;;;;;;5.90;69.18;101015.19;10382546;28;20430;-64
2021/11/09 07:01:57;;;;;;;367.80;15.48;;;;;;;5.89;69.20;101023.88;10384727;28;20041;-64
2021/11/09 07:07:00;;;;;;;621.45;23.73;;;;;;;5.87;68.85;101030.84;10382833;28;20405;-64
2021/11/09 07:12:02;;;;;;;183.43;13.40;;;;;;;5.89;68.67;101036.84;10382731;28;20056;-63
2021/11/09 07:17:04;;;;;;;524.10;19.13;;;;;;;5.80;68.62;101044.00;10383351;28;20663;-63
2021/11/09 07:22:06;;;;;;;323.02;13.77;;;;;;;5.91;68.79;101048.06;10383407;28;20046;-63
2021/11/09 07:27:08;;;;;;;244.82;13.48;;;;;;;5.88;68.66;101063.69;10380958;28;20593;-64
2021/11/09 07:32:11;;;;;;;301.27;14.55;;;;;;;6.01;68.63;101054.75;10381851;28;20045;-64
2021/11/09 07:37:13;;;;;;;338.77;14.07;;;;;;;6.05;68.24;101061.56;10388199;28;20385;-64
2021/11/09 07:42:17;;;;;;;276.10;14.88;;;;;;;6.03;68.50;101065.09;10392404;28;20535;-64
2021/11/09 07:47:19;;;;;;;305.88;14.80;;;;;;;6.18;68.61;101068.19;10391085;28;20056;-64
2021/11/09 07:52:21;;;;;;;311.90;18.25;;;;;;;6.35;68.11;101071.25;10391000;28;20084;-64
2021/11/09 07:57:22;;;;;;;221.80;15.20;;;;;;;6.51;67.95;101073.50;10389827;28;20582;-64
2021/11/09 08:02:47;;;;;;;244.45;13.73;;;;;;;6.53;67.85;101076.91;10390478;28;20107;-64
2021/11/09 08:07:53;;;;;;;171.80;14.93;;;;;;;6.50;67.89;101077.84;10388447;28;20071;-64
2021/11/09 08:12:54;;;;;;;158.68;14.27;;;;;;;6.52;68.20;101078.66;10390496;28;20049;-64
2021/11/09 08:17:56;;;;;;;427.42;27.80;;;;;;;6.54;67.71;101082.06;10390207;28;20056;-64
2021/11/09 08:22:58;;;;;;;651.80;28.50;;;;;;;6.46;67.17;101078.78;10390087;28;20781;-64
2021/11/09 08:28:02;;;;;;;776.80;29.05;;;;;;;6.13;67.62;101083.03;10389711;28;20041;-64
2021/11/09 08:33:04;;;;;;;194.02;18.33;;;;;;;6.16;67.87;101087.31;10388501;28;20060;-63
2021/11/09 08:38:07;;;;;;;141.77;16.13;;;;;;;6.07;67.51;101090.97;10387656;28;20049;-63
2021/11/09 08:43:10;;;;;;;63.33;10.68;;;;;;;5.91;67.67;101093.94;10387094;28;20042;-63
2021/11/09 08:48:15;;;;;;;49.70;14.13;;;;;;;5.89;68.17;101090.50;10388946;28;20120;-63
2021/11/09 08:53:24;;;;;;;58.20;13.32;;;;;;;6.17;67.78;101101.97;10385733;28;20053;-63
2021/11/09 09:09:08;;;;;;;64.85;13.73;;;;;;;6.67;65.99;101095.59;10388286;28;20128;-64
2021/11/09 09:14:10;;;;;;;27.70;11.43;;;;;;;6.49;66.40;101091.69;10387630;28;20057;-63
2021/11/09 09:19:17;;;;;;;311.38;18.88;;;;;;;6.33;66.48;101093.81;10386615;28;20054;-64
2021/11/09 09:24:45;;;;;;;29.65;12.77;;;;;;;6.75;66.43;101101.47;10387077;28;20041;-63
2021/11/09 09:56:43;;;;;;;26.10;12.80;;;;;;;7.41;65.28;101097.03;10386470;28;19925;-72
2021/11/09 10:02:03;;;;;;;21.77;12.23;;;;;;;7.61;64.82;101094.72;10385886;28;20059;-72
2021/11/09 10:07:05;;;;;;;28.75;12.82;;;;;;;7.86;64.26;101098.31;10385407;28;20053;-72
2021/11/09 10:12:21;;;;;;;22.20;12.05;;;;;;;7.92;63.91;101092.03;10386735;28;20049;-73
2021/11/09 10:17:25;;;;;;;21.27;11.57;;;;;;;8.10;64.32;101095.84;10386548;28;20149;-71
2021/11/09 10:22:30;;;;;;;25.02;13.10;;;;;;;8.27;63.68;101093.59;10385210;28;20401;-70
2021/11/09 10:27:34;;;;;;;19.92;9.73;;;;;;;8.23;63.50;101095.44;10380940;28;20053;-70
2021/11/09 10:32:37;;;;;;;20.75;8.98;;;;;;;8.24;63.04;101104.13;10384572;28;20267;-71
2021/11/09 10:37:44;;;;;;;20.70;9.55;;;;;;;8.15;63.21;101097.44;10386399;28;20063;-71
2021/11/09 10:42:50;;;;;;;22.10;9.35;;;;;;;8.31;63.14;101103.00;10386077;28;20052;-70
2021/11/09 10:47:54;;;;;;;23.40;9.77;;;;;;;8.20;63.41;101105.13;10386398;28;20124;-70
2021/11/09 10:58:29;;;;;;;25.42;9.73;;;;;;;8.35;62.94;101086.38;10385685;28;20336;-70
2021/11/09 11:08:37;;;;;;;26.73;11.80;;;;;;;8.56;62.60;101067.44;10385221;28;20132;-70
2021/11/09 11:13:39;;;;;;;20.70;12.05;;;;;;;8.56;62.57;101070.03;10393218;28;20064;-70
2021/11/09 11:18:43;;;;;;;25.48;12.73;;;;;;;8.56;62.34;101049.19;10394273;28;20048;-70
2021/11/09 11:23:45;;;;;;;26.73;12.32;;;;;;;8.82;62.03;101049.13;10392236;28;20094;-70
2021/11/09 11:28:50;;;;;;;23.30;11.80;;;;;;;8.93;61.51;101047.03;10393800;28;20103;-70
2021/11/09 11:33:52;;;;;;;24.13;11.88;;;;;;;9.08;61.41;101045.59;10393359;28;20156;-70
2021/11/09 11:39:04;;;;;;;20.67;11.65;;;;;;;9.04;60.07;101030.94;10392608;28;20160;-71
2021/11/09 11:44:08;;;;;;;18.42;9.82;;;;;;;9.07;60.54;101023.03;10391748;28;20061;-71
2021/11/09 11:49:12;;;;;;;21.23;9.73;;;;;;;9.35;60.23;101027.19;10392336;28;20054;-69
2021/11/09 11:54:36;;;;;;;16.52;9.23;;;;;;;9.47;59.58;101013.66;10392373;28;20056;-70
2021/11/09 11:59:40;;;;;;;21.48;10.75;;;;;;;9.55;59.34;101003.78;10392263;28;20097;-69
2021/11/09 12:04:44;;;;;;;20.35;9.07;;;;;;;9.65;58.49;100999.91;10392512;28;20569;-70
2021/11/09 12:09:49;;;;;;;15.52;8.50;;;;;;;9.84;58.49;100993.97;10392407;28;20107;-70
2021/11/09 12:14:56;;;;;;;14.65;7.05;;;;;;;9.91;57.35;100987.59;10390337;28;20152;-69
2021/11/09 12:20:07;;;;;;;13.68;6.15;;;;;;;9.95;56.21;100979.56;10391902;28;20077;-69
2021/11/09 12:25:16;;;;;;;16.23;6.72;;;;;;;10.04;55.09;100978.34;10391414;28;21021;-69
2021/11/09 12:30:34;;;;;;;13.25;5.90;;;;;;;10.13;54.89;100965.75;10391394;28;20497;-69
2021/11/09 12:35:37;;;;;;;17.20;5.70;;;;;;;10.28;54.73;100956.41;10390804;28;20085;-69
2021/11/09 12:40:41;;;;;;;12.70;6.78;;;;;;;10.33;54.25;100957.94;10390888;28;20057;-70
2021/11/09 12:45:51;;;;;;;10.90;5.80;;;;;;;10.43;54.43;100945.31;10389670;28;20049;-70
2021/11/09 12:50:56;;;;;;;14.18;5.65;;;;;;;10.47;54.44;100944.25;10389386;28;20141;-70
2021/11/09 12:56:16;;;;;;;11.45;5.13;;;;;;;10.58;53.74;100926.34;10387849;28;20069;-71
2021/11/09 13:06:40;;;;;;;12.90;3.90;;;;;;;10.89;52.24;100907.50;10389260;28;20136;-69
2021/11/09 13:11:49;;;;;;;12.80;4.70;;;;;;;10.92;51.84;100905.59;10387973;28;20631;-71
2021/11/09 13:16:52;;;;;;;6.18;2.25;;;;;;;11.09;49.74;100892.59;10387449;28;20049;-72
2021/11/09 13:22:14;;;;;;;6.10;2.00;;;;;;;11.13;46.97;100882.84;10389112;28;20147;-72
2021/11/09 13:27:16;;;;;;;6.15;2.10;;;;;;;11.22;48.10;100887.63;10389199;28;20045;-71
2021/11/09 13:32:17;;;;;;;4.25;2.13;;;;;;;11.25;47.10;100882.25;10388308;28;20103;-72
2021/11/09 13:37:19;;;;;;;5.70;2.00;;;;;;;11.36;47.34;100879.13;10387921;28;20148;-71
2021/11/09 13:42:21;;;;;;;4.97;1.83;;;;;;;11.32;47.21;100876.66;10388174;28;20796;-71
2021/11/09 13:47:33;;;;;;;4.38;1.80;;;;;;;11.25;45.28;100867.38;10388206;28;20049;-72
2021/11/09 13:52:51;;;;;;;3.92;1.73;;;;;;;11.26;44.57;100874.31;10387883;28;20512;-72
2021/11/09 13:57:55;;;;;;;4.68;1.83;;;;;;;11.30;45.42;100869.78;10388133;28;20729;-72
2021/11/09 14:19:24;;;;;;;6.63;2.13;;;;;;;11.00;43.94;100874.69;10386394;28;19924;-72
2021/11/09 14:24:28;;;;;;;6.32;2.10;;;;;;;11.03;45.13;100874.50;10387003;28;20051;-72
2021/11/09 14:29:36;;;;;;;5.60;2.00;;;;;;;11.04;45.23;100871.03;10385207;28;20413;-72
2021/11/09 14:34:40;;;;;;;3.95;1.60;;;;;;;11.00;45.49;100872.06;10384839;28;20050;-72
2021/11/09 14:40:08;;;;;;;3.67;1.50;;;;;;;10.90;44.29;100873.41;10386986;28;20049;-71
2021/11/09 14:45:25;;;;;;;6.43;1.83;;;;;;;10.86;45.18;100874.47;10385988;28;20489;-71
2021/11/09 14:50:43;;;;;;;5.45;2.00;;;;;;;10.79;45.04;100877.41;10384319;28;20685;-71
2021/11/09 14:56:02;;;;;;;4.55;2.05;;;;;;;10.75;45.66;100886.31;10385847;28;20151;-72
2021/11/09 15:01:37;;;;;;;4.78;2.33;;;;;;;10.59;45.89;100883.56;10385186;28;20050;-72
2021/11/09 15:28:29;;;;;;;7.47;2.83;;;;;;;9.45;49.06;100890.16;10386437;28;20094;-71
2021/11/09 15:33:36;;;;;;;7.68;2.80;;;;;;;9.31;49.55;100889.84;10384861;28;20141;-71
2021/11/09 15:38:38;;;;;;;6.90;2.60;;;;;;;9.17;49.88;100893.91;10385427;28;20053;-71
2021/11/09 15:43:40;;;;;;;9.38;2.95;;;;;;;8.98;50.29;100903.34;10385146;28;20080;-71
2021/11/09 15:48:41;;;;;;;8.43;2.50;;;;;;;8.76;50.60;100901.53;10384723;28;20142;-71
2021/11/09 15:53:43;;;;;;;7.15;2.70;;;;;;;8.61;51.06;100899.47;10384799;28;20100;-71
2021/11/09 15:58:45;;;;;;;7.70;3.63;;;;;;;8.46;51.95;100913.09;10391606;28;20056;-71
2021/11/09 16:03:47;;;;;;;7.68;4.30;;;;;;;8.30;52.36;100916.28;10392014;28;20076;-73
2021/11/09 16:08:50;;;;;;;8.35;3.72;;;;;;;8.19;52.57;100913.19;10391889;28;20057;-71
2021/11/09 16:13:52;;;;;;;10.13;3.47;;;;;;;8.15;52.67;100906.38;10391881;28;20191;-71
2021/11/09 16:18:53;;;;;;;10.77;4.28;;;;;;;8.07;53.14;100908.34;10392534;28;20049;-71
2021/11/09 16:23:55;;;;;;;14.52;5.13;;;;;;;7.80;54.69;100908.38;10391515;28;20052;-71
2021/11/09 16:28:57;;;;;;;11.13;5.20;;;;;;;7.56;54.61;100921.34;10390796;28;20258;-71
2021/11/09 16:33:59;;;;;;;10.77;3.80;;;;;;;7.35;55.12;100909.84;10390186;28;20434;-71
2021/11/09 16:39:15;;;;;;;9.70;3.65;;;;;;;7.09;55.66;100900.25;10390437;28;20060;-71
2021/11/09 16:44:18;;;;;;;9.27;3.15;;;;;;;6.97;55.97;100898.00;10390509;28;20068;-71
2021/11/09 16:49:34;;;;;;;7.32;3.50;;;;;;;6.89;56.43;100899.13;10390006;28;20061;-72
2021/11/09 16:54:41;;;;;;;8.77;3.60;;;;;;;6.75;57.19;100901.28;10389598;28;20330;-71
2021/11/09 17:24:17;;;;;;;12.20;5.65;;;;;;;6.19;59.57;100895.88;10388762;28;20053;-71
2021/11/09 18:24:26;;;;;;;15.07;6.53;;;;;;;5.16;62.00;100907.09;10386402;28;20054;-71
2021/11/09 18:29:28;;;;;;;14.95;6.63;;;;;;;5.04;62.47;100913.41;10385453;28;20100;-71
2021/11/09 18:34:32;;;;;;;15.10;7.82;;;;;;;4.94;62.68;100913.63;10384230;28;20050;-72
2021/11/09 18:39:35;;;;;;;11.52;5.68;;;;;;;4.89;62.59;100933.59;10386499;28;20345;-71
2021/11/09 18:44:37;;;;;;;14.38;6.70;;;;;;;4.81;63.00;100935.47;10386646;28;20111;-70
2021/11/09 18:49:40;;;;;;;12.95;4.72;;;;;;;4.74;62.87;100924.38;10386069;28;20053;-73
2021/11/09 18:54:42;;;;;;;12.43;4.90;;;;;;;4.68;63.17;100927.97;10386114;28;20076;-72
2021/11/09 18:59:44;;;;;;;12.93;5.90;;;;;;;4.63;63.06;100929.81;10386280;28;20429;-72
2021/11/09 19:04:46;;;;;;;14.57;6.72;;;;;;;4.50;63.29;100927.47;10384311;28;20076;-73
2021/11/09 19:09:48;;;;;;;13.30;5.93;;;;;;;4.37;63.41;100931.19;10385818;28;20422;-73
2021/11/09 19:14:51;;;;;;;9.88;5.03;;;;;;;4.23;63.95;100928.00;10385710;28;20164;-73
2021/11/09 19:19:54;;;;;;;13.35;5.85;;;;;;;4.19;64.07;100926.34;10385773;28;20056;-72
2021/11/09 19:24:55;;;;;;;15.38;6.85;;;;;;;4.11;64.21;100923.88;10385043;28;20146;-73
2021/11/09 19:29:59;;;;;;;10.95;6.75;;;;;;;4.05;64.33;100920.56;10385847;28;20529;-72
2021/11/09 19:35:02;;;;;;;15.32;8.43;;;;;;;3.95;64.33;100908.63;10391546;28;20515;-73
2021/11/09 19:40:06;;;;;;;15.73;6.65;;;;;;;3.89;64.53;100901.84;10392899;28;20452;-73
2021/11/09 19:45:19;;;;;;;11.68;5.63;;;;;;;3.82;64.77;100913.97;10393103;28;20055;-73
2021/11/09 19:50:22;;;;;;;9.00;5.85;;;;;;;3.74;64.22;100912.44;10391930;28;20084;-65
2021/11/09 19:55:29;;;;;;;12.13;6.03;;;;;;;3.55;64.93;100919.63;10392370;28;20153;-65
2021/11/09 20:00:34;;;;;;;10.05;5.10;;;;;;;3.55;65.14;100924.78;10390963;28;20045;-65
2021/11/09 20:05:41;;;;;;;17.52;6.30;;;;;;;3.55;65.00;100921.34;10387648;28;20053;-65
2021/11/09 20:10:44;;;;;;;17.73;8.52;;;;;;;3.42;64.99;100930.16;10390133;28;20619;-65
2021/11/09 20:15:49;;;;;;;18.25;7.95;;;;;;;3.39;64.86;100925.03;10390751;28;20054;-65
2021/11/09 20:20:53;;;;;;;14.77;7.20;;;;;;;3.07;65.55;100937.56;10389935;28;20045;-65
2021/11/09 20:25:55;;;;;;;14.60;6.95;;;;;;;3.09;65.57;100933.22;10389139;28;20168;-65
2021/11/09 20:30:58;;;;;;;15.10;6.38;;;;;;;3.14;65.42;100926.25;10390179;28;20167;-65
2021/11/09 20:36:01;;;;;;;11.98;6.20;;;;;;;3.08;65.67;100919.44;10387940;28;20057;-65
2021/11/09 20:41:06;;;;;;;15.60;8.07;;;;;;;3.00;65.84;100916.13;10388582;28;20367;-65
2021/11/09 20:46:08;;;;;;;14.65;6.80;;;;;;;2.97;66.00;100917.00;10388124;28;20057;-64
2021/11/09 20:51:10;;;;;;;12.10;5.78;;;;;;;2.95;65.97;100929.09;10388596;28;20056;-65
2021/11/09 20:56:12;;;;;;;10.57;6.35;;;;;;;2.90;65.97;100923.13;10388289;28;20485;-65
2021/11/09 21:01:14;;;;;;;17.05;7.93;;;;;;;2.82;65.86;100912.06;10388312;28;20442;-65
2021/11/09 21:06:16;;;;;;;12.80;6.28;;;;;;;2.66;66.57;100914.84;10387747;28;20219;-65
2021/11/09 21:11:17;;;;;;;12.23;6.65;;;;;;;2.60;66.79;100909.75;10385577;28;20660;-64
2021/11/09 21:21:40;;;;;;;15.23;7.10;;;;;;;2.47;66.34;100928.81;10384992;28;20452;-64
2021/11/09 21:26:42;;;;;;;15.45;8.18;;;;;;;2.37;66.21;100907.44;10386915;28;20071;-64
2021/11/09 21:36:49;;;;;;;18.38;8.80;;;;;;;2.27;66.32;100890.31;10383186;28;20057;-64
2021/11/09 21:41:55;;;;;;;12.30;7.50;;;;;;;2.23;66.80;100909.31;10384382;28;20063;-64
2021/11/09 21:46:57;;;;;;;13.02;7.90;;;;;;;2.27;66.63;100905.81;10383542;28;20046;-64
2021/11/09 21:51:58;;;;;;;11.50;7.28;;;;;;;2.25;66.66;100904.13;10383610;28;20049;-64
2021/11/09 21:57:00;;;;;;;21.38;9.50;;;;;;;2.17;66.47;100905.03;10383407;28;20096;-65
2021/11/09 22:02:03;;;;;;;15.02;8.18;;;;;;;2.10;66.69;100910.28;10383340;28;20049;-65
2021/11/09 22:07:05;;;;;;;12.13;7.63;;;;;;;2.12;66.84;100916.28;10385249;28;20054;-65
2021/11/09 22:12:07;;;;;;;16.92;9.60;;;;;;;2.08;66.62;100910.31;10381212;28;20839;-63
2021/11/09 22:17:09;;;;;;;20.27;8.43;;;;;;;2.04;66.64;100916.38;10381166;28;20148;-64
2021/11/09 22:22:12;;;;;;;12.48;7.00;;;;;;;1.94;66.83;100907.00;10382658;28;20136;-63
2021/11/09 22:27:14;;;;;;;14.73;7.50;;;;;;;1.87;66.92;100912.25;10383818;28;20053;-63
2021/11/09 22:32:16;;;;;;;11.88;7.63;;;;;;;1.85;66.73;100919.09;10378880;28;20108;-64
2021/11/09 22:37:18;;;;;;;14.32;7.60;;;;;;;1.78;66.62;100923.47;10382573;28;20055;-64
2021/11/09 22:42:20;;;;;;;14.45;7.30;;;;;;;1.79;66.87;100917.44;10383401;28;20231;-64
2021/11/09 22:47:22;;;;;;;18.20;7.82;;;;;;;1.71;66.79;100906.34;10383366;28;20053;-64
2021/11/09 22:52:23;;;;;;;16.30;7.20;;;;;;;1.62;66.79;100918.47;10381402;28;20421;-64
2021/11/09 22:57:25;;;;;;;13.27;7.00;;;;;;;1.61;66.94;100917.59;10383161;28;20053;-64
2021/11/09 23:02:27;;;;;;;14.45;7.50;;;;;;;1.62;66.74;100905.56;10382700;28;20057;-64
2021/11/09 23:07:28;;;;;;;13.10;8.00;;;;;;;1.43;66.32;100902.28;10382971;28;20061;-64
2021/11/09 23:12:30;;;;;;;15.43;7.22;;;;;;;1.37;67.01;100910.03;10381730;28;20633;-64
2021/11/09 23:17:32;;;;;;;13.50;6.97;;;;;;;1.39;66.91;100910.88;10381608;28;20064;-64
2021/11/09 23:22:36;;;;;;;14.85;7.65;;;;;;;1.40;66.78;100906.59;10381211;28;20050;-64
2021/11/09 23:27:41;;;;;;;26.23;8.35;;;;;;;1.34;66.83;100892.00;10382969;28;20146;-65
2021/11/09 23:32:43;;;;;;;19.13;6.90;;;;;;;1.25;67.00;100892.09;10381271;28;20428;-64
2021/11/09 23:37:46;;;;;;;14.05;7.50;;;;;;;1.16;67.00;100898.16;10383085;28;20073;-64
2021/11/09 23:42:54;;;;;;;19.30;6.85;;;;;;;1.12;66.91;100893.88;10382793;28;20497;-64
2021/11/09 23:48:01;;;;;;;119.78;10.35;;;;;;;1.12;67.08;100893.03;10381745;28;20057;-64
2021/11/09 23:53:03;;;;;;;156.98;12.15;;;;;;;0.95;67.12;100892.28;10382268;28;20576;-64
2021/11/09 23:58:05;;;;;;;235.88;11.82;;;;;;;0.73;67.23;100880.38;10384504;28;20085;-64
